createdAt,value
2018-08-30T00:00:21.980Z,100262.44
2018-08-30T00:05:19.426Z,100267.75
2018-08-30T00:10:16.851Z,100271.09
2018-08-30T00:15:14.187Z,100284.17
2018-08-30T00:20:12.689Z,100300.00
2018-08-30T00:25:10.072Z,100305.51
2018-08-30T00:30:07.476Z,100302.60
2018-08-30T00:35:05.492Z,100309.14
2018-08-30T00:40:02.905Z,100311.13
2018-08-30T00:45:00.601Z,100322.25
2018-08-30T00:49:59.588Z,100317.08
2018-08-30T00:54:57.075Z,100324.25
2018-08-30T00:59:54.459Z,100325.94
2018-08-30T01:04:51.823Z,100321.61
2018-08-30T01:09:49.209Z,100334.51
2018-08-30T01:14:46.580Z,100331.97
2018-08-30T01:19:50.595Z,100339.20
2018-08-30T01:24:48.327Z,100349.52
2018-08-30T01:29:45.696Z,100348.38
2018-08-30T01:34:43.067Z,100364.53
2018-08-30T01:39:40.437Z,100360.55
2018-08-30T01:44:37.805Z,100355.89
2018-08-30T01:49:39.520Z,100349.20
2018-08-30T01:54:36.994Z,100355.83
2018-08-30T01:59:34.363Z,100362.19
2018-08-30T02:04:31.743Z,100369.38
2018-08-30T02:09:29.437Z,100374.74
2018-08-30T02:14:27.291Z,100376.98
2018-08-30T02:19:35.323Z,100391.45
2018-08-30T02:24:32.809Z,100388.80
2018-08-30T02:29:30.259Z,100395.09
2018-08-30T02:34:28.034Z,100400.32
2018-08-30T02:39:26.436Z,100407.48
2018-08-30T02:44:24.860Z,100413.47
2018-08-30T02:49:25.744Z,100412.84
2018-08-30T02:54:23.184Z,100421.66
2018-08-30T02:59:21.132Z,100420.33
2018-08-30T03:04:18.511Z,100430.31
2018-08-30T03:09:15.893Z,100431.94
2018-08-30T03:14:13.355Z,100435.39
2018-08-30T03:19:12.267Z,100435.16
2018-08-30T03:24:10.185Z,100448.05
2018-08-30T03:29:07.576Z,100449.34
2018-08-30T03:34:04.979Z,100456.53
2018-08-30T03:39:02.446Z,100466.78
2018-08-30T03:43:59.822Z,100468.23
2018-08-30T03:48:57.489Z,100468.17
2018-08-30T03:53:54.876Z,100474.30
2018-08-30T03:58:52.287Z,100478.67
2018-08-30T04:03:49.679Z,100481.99
2018-08-30T04:08:47.082Z,100487.33
2018-08-30T04:13:44.466Z,100496.57
2018-08-30T04:18:41.878Z,100497.30
2018-08-30T04:23:39.259Z,100499.58
2018-08-30T04:28:36.651Z,100506.14
2018-08-30T04:33:34.038Z,100508.03
2018-08-30T04:38:31.528Z,100516.51
2018-08-30T04:43:28.959Z,100518.33
2018-08-30T04:48:27.036Z,100523.80
2018-08-30T04:53:24.459Z,100527.57
2018-08-30T04:58:21.894Z,100527.50
2018-08-30T05:03:19.347Z,100539.02
2018-08-30T05:08:16.794Z,100548.67
2018-08-30T05:13:14.303Z,100549.67
2018-08-30T05:18:12.426Z,100556.05
2018-08-30T05:23:09.864Z,100561.05
2018-08-30T05:28:07.691Z,100557.38
2018-08-30T05:33:05.624Z,100567.09
2018-08-30T05:38:03.007Z,100575.62
2018-08-30T05:43:00.408Z,100583.45
2018-08-30T05:47:57.807Z,100584.05
2018-08-30T05:52:55.251Z,100582.27
2018-08-30T05:57:52.662Z,100582.17
2018-08-30T06:02:50.079Z,100592.55
2018-08-30T06:07:47.520Z,100603.88
2018-08-30T06:12:45.036Z,100612.84
2018-08-30T06:17:42.487Z,100620.73
2018-08-30T06:22:39.919Z,100621.97
2018-08-30T06:27:37.354Z,100621.79
2018-08-30T06:32:34.840Z,100630.61
2018-08-30T06:37:32.907Z,100628.73
2018-08-30T06:42:30.320Z,100640.97
2018-08-30T06:47:27.782Z,100638.89
2018-08-30T06:52:25.232Z,100639.65
2018-08-30T06:57:22.707Z,100651.91
2018-08-30T07:02:20.515Z,100653.46
2018-08-30T07:07:17.922Z,100650.42
2018-08-30T07:12:15.347Z,100661.40
2018-08-30T07:17:12.730Z,100671.78
2018-08-30T07:22:10.146Z,100674.41
2018-08-30T07:27:07.539Z,100681.12
2018-08-30T07:32:05.705Z,100685.41
2018-08-30T07:37:03.122Z,100685.83
2018-08-30T07:42:00.547Z,100699.35
2018-08-30T07:46:57.930Z,100704.47
2018-08-30T07:51:55.348Z,100710.95
2018-08-30T07:56:52.734Z,100708.52
2018-08-30T08:01:50.106Z,100712.42
2018-08-30T08:06:47.530Z,100711.65
2018-08-30T08:11:44.965Z,100716.43
2018-08-30T08:16:42.351Z,100717.50
2018-08-30T08:21:39.751Z,100731.31
2018-08-30T08:26:37.147Z,100735.03
2018-08-30T08:31:34.538Z,100742.47
2018-08-30T08:36:31.931Z,100744.80
2018-08-30T08:41:29.579Z,100755.92
2018-08-30T08:46:26.976Z,100759.70
2018-08-30T08:51:24.368Z,100765.61
2018-08-30T08:56:21.790Z,100772.32
2018-08-30T09:01:19.292Z,100766.94
2018-08-30T09:06:16.727Z,100759.22
2018-08-30T09:11:14.157Z,100766.92
2018-08-30T09:16:11.996Z,100766.27
2018-08-30T09:21:09.543Z,100763.97
2018-08-30T09:26:06.983Z,100767.00
2018-08-30T09:31:04.708Z,100759.55
2018-08-30T09:36:02.044Z,100760.71
2018-08-30T09:40:59.466Z,100769.65
2018-08-30T09:45:56.920Z,100771.05
2018-08-30T09:50:54.347Z,100783.53
2018-08-30T09:55:51.756Z,100779.55
2018-08-30T10:00:54.871Z,100774.28
2018-08-30T10:05:52.304Z,100790.64
2018-08-30T10:10:49.699Z,100791.22
2018-08-30T10:15:47.157Z,100794.66
2018-08-30T10:20:44.738Z,100795.55
2018-08-30T10:25:43.175Z,100793.28
2018-08-30T10:30:40.672Z,100797.66
2018-08-30T10:35:38.146Z,100811.12
2018-08-30T10:40:35.548Z,100801.16
2018-08-30T10:45:32.975Z,100798.11
2018-08-30T10:50:31.007Z,100801.73
2018-08-30T10:55:28.411Z,100799.78
2018-08-30T11:00:25.866Z,100799.23
2018-08-30T11:05:23.294Z,100805.55
2018-08-30T11:10:20.713Z,100795.89
2018-08-30T11:15:19.069Z,100796.77
2018-08-30T11:20:17.513Z,100801.08
2018-08-30T11:25:14.916Z,100806.00
2018-08-30T11:30:12.372Z,100803.53
2018-08-30T11:35:09.774Z,100798.47
2018-08-30T11:40:07.207Z,100802.54
2018-08-30T11:45:05.404Z,100796.08
2018-08-30T11:50:03.960Z,100803.77
2018-08-30T11:55:01.642Z,100805.91
2018-08-30T11:59:59.043Z,100802.20
2018-08-30T12:04:56.515Z,100812.02
2018-08-30T12:09:53.985Z,100804.26
2018-08-30T12:14:51.413Z,100815.13
2018-08-30T12:19:54.608Z,100810.59
2018-08-30T12:24:52.071Z,100806.48
2018-08-30T12:29:49.495Z,100804.09
2018-08-30T12:34:47.439Z,100815.73
2018-08-30T12:39:44.953Z,100827.56
2018-08-30T12:44:42.387Z,100811.77
2018-08-30T12:49:45.477Z,100816.80
2018-08-30T12:54:43.079Z,100815.95
2018-08-30T12:59:41.940Z,100813.48
2018-08-30T13:04:39.553Z,100827.44
2018-08-30T13:09:36.908Z,100845.64
2018-08-30T13:14:34.638Z,100842.55
2018-08-30T13:19:42.353Z,100860.98
2018-08-30T13:24:39.870Z,100867.17
2018-08-30T13:29:37.345Z,100862.77
2018-08-30T13:34:35.006Z,100863.49
2018-08-30T13:39:32.475Z,100879.09
2018-08-30T13:44:29.921Z,100861.58
2018-08-30T13:49:31.627Z,100864.20
2018-08-30T13:54:29.922Z,100884.50
2018-08-30T13:59:27.794Z,100892.90
2018-08-30T14:04:25.028Z,100877.47
2018-08-30T14:09:22.444Z,100871.94
2018-08-30T14:14:20.011Z,100884.77
2018-08-30T14:19:28.059Z,100907.20
2018-08-30T14:24:25.660Z,100905.81
2018-08-30T14:29:25.516Z,100907.02
2018-08-30T14:34:22.938Z,100910.55
2018-08-30T14:39:25.230Z,100917.30
2018-08-30T14:44:27.615Z,100921.42
2018-08-30T14:49:29.775Z,100929.61
2018-08-30T14:54:30.348Z,100935.89
2018-08-30T14:59:29.971Z,100933.99
2018-08-30T15:04:31.202Z,100939.27
2018-08-30T15:09:30.850Z,100950.95
2018-08-30T15:14:28.303Z,100950.84
2018-08-30T15:19:35.019Z,100949.25
2018-08-30T15:24:32.648Z,100949.14
2018-08-30T15:29:30.100Z,100953.92
2018-08-30T15:34:27.534Z,100969.91
2018-08-30T15:39:24.972Z,100970.81
2018-08-30T15:44:22.366Z,100978.41
2018-08-30T15:49:26.238Z,101002.60
2018-08-30T15:54:23.831Z,101008.48
2018-08-30T15:59:21.268Z,101004.31
2018-08-30T16:04:18.652Z,101014.48
2018-08-30T16:09:16.056Z,101016.84
2018-08-30T16:14:13.670Z,101021.69
2018-08-30T16:19:12.727Z,101024.70
2018-08-30T16:24:10.194Z,101024.28
2018-08-30T16:29:07.673Z,101032.61
2018-08-30T16:34:05.121Z,101040.13
2018-08-30T16:39:03.826Z,101042.46
2018-08-30T16:44:01.237Z,101042.02
2018-08-30T16:48:59.541Z,101052.48
2018-08-30T16:53:56.955Z,101045.53
2018-08-30T16:58:54.572Z,101042.45
2018-08-30T17:03:51.984Z,101048.27
2018-08-30T17:08:49.465Z,101044.88
2018-08-30T17:13:46.857Z,101045.09
2018-08-30T17:18:46.387Z,101049.61
2018-08-30T17:23:44.340Z,101042.73
2018-08-30T17:28:41.762Z,101034.06
2018-08-30T17:33:39.166Z,101032.91
2018-08-30T17:38:36.603Z,101020.41
2018-08-30T17:43:34.007Z,101026.73
2018-08-30T17:48:31.439Z,101028.14
2018-08-30T17:53:28.899Z,101030.11
2018-08-30T17:58:26.386Z,101032.34
2018-08-30T18:03:23.862Z,101043.24
2018-08-30T18:08:21.302Z,101040.48
2018-08-30T18:13:18.696Z,101042.03
2018-08-30T18:18:16.188Z,101045.88
2018-08-30T18:23:13.623Z,101047.33
2018-08-30T18:28:11.045Z,101051.75
2018-08-30T18:33:08.523Z,101060.77
2018-08-30T18:38:05.935Z,101066.64
2018-08-30T18:43:03.375Z,101069.88
2018-08-30T18:48:00.740Z,101067.97
2018-08-30T18:52:58.134Z,101078.60
2018-08-30T18:57:55.535Z,101088.72
2018-08-30T19:02:52.916Z,101092.66
2018-08-30T19:07:50.356Z,101097.22
2018-08-30T19:12:47.729Z,101103.77
2018-08-30T19:17:50.711Z,101100.94
2018-08-30T19:22:48.108Z,101104.31
2018-08-30T19:27:45.820Z,101099.26
2018-08-30T19:32:43.968Z,101111.92
2018-08-30T19:37:41.339Z,101110.91
2018-08-30T19:42:38.736Z,101118.60
2018-08-30T19:47:36.122Z,101118.05
2018-08-30T19:52:33.628Z,101127.59
2018-08-30T19:57:31.026Z,101132.48
2018-08-30T20:02:29.429Z,101137.27
2018-08-30T20:07:26.807Z,101137.42
2018-08-30T20:12:24.255Z,101137.42
2018-08-30T20:17:21.641Z,101144.89
2018-08-30T20:22:19.123Z,101144.38
2018-08-30T20:27:16.531Z,101138.27
2018-08-30T20:32:13.967Z,101150.66
2018-08-30T20:37:11.567Z,101143.28
2018-08-30T20:42:08.959Z,101139.02
2018-08-30T20:47:07.279Z,101149.97
2018-08-30T20:52:04.867Z,101143.11
2018-08-30T20:57:02.307Z,101146.38
2018-08-30T21:02:01.885Z,101145.22
2018-08-30T21:06:59.255Z,101141.67
2018-08-30T21:11:56.639Z,101141.08
2018-08-30T21:16:54.011Z,101137.70
2018-08-30T21:21:51.423Z,101138.51
2018-08-30T21:26:48.807Z,101133.42
2018-08-30T21:31:46.200Z,101137.34
2018-08-30T21:36:43.575Z,101134.03
2018-08-30T21:41:40.999Z,101144.42
2018-08-30T21:46:38.671Z,101145.43
2018-08-30T21:51:36.135Z,101150.76
2018-08-30T21:56:33.526Z,101155.89
2018-08-30T22:01:30.911Z,101155.74
2018-08-30T22:06:28.322Z,101160.05
2018-08-30T22:11:25.694Z,101160.94
2018-08-30T22:16:23.155Z,101155.14
2018-08-30T22:21:20.584Z,101156.34
2018-08-30T22:26:17.966Z,101157.89
2018-08-30T22:31:15.390Z,101163.59
2018-08-30T22:36:12.850Z,101165.06
2018-08-30T22:41:10.797Z,101163.25
2018-08-30T22:46:08.160Z,101164.69
2018-08-30T22:51:05.604Z,101168.02
2018-08-30T22:56:02.978Z,101170.56
2018-08-30T23:01:00.338Z,101167.78
2018-08-30T23:05:57.799Z,101164.81
2018-08-30T23:10:55.175Z,101164.88
2018-08-30T23:15:52.607Z,101174.29
2018-08-30T23:20:50.015Z,101171.95
2018-08-30T23:25:47.715Z,101167.48
2018-08-30T23:30:45.113Z,101166.73
2018-08-30T23:35:42.614Z,101161.07
2018-08-30T23:40:40.023Z,101164.70
2018-08-30T23:45:38.080Z,101162.28
2018-08-30T23:50:39.481Z,101156.31
2018-08-30T23:55:38.193Z,101161.51
